KSHD/SHD METAR and TAF weather

Enter ICAO airport designator
Station Type Date Time Source
KSHD METAR 2020/07/10 15:15 UTC NOAA

KSHD 101515Z AUTO 00000KT 10SM CLR 28/21 A2994 RMK AO2 T02750210


Station Type Date Time Source
KSHD Decoded METAR 2020/07/10 15:15 UTC NOAA

Staunton / Shenandoah, VA, United States (KSHD) 38-16N 078-54W
Jul 10, 2020 - 11:15 AM EDT / 2020.07.10 1515 UTC
Wind: Calm:0
Visibility: 10 mile(s):0
Sky conditions: clear
Temperature: 81.5 F (27.5 C)
Dew Point: 69.8 F (21.0 C)
Relative Humidity: 67%
Pressure (altimeter): 29.94 in. Hg (1013 hPa)
ob: KSHD 101515Z AUTO 00000KT 10SM CLR 28/21 A2994 RMK AO2 T02750210
cycle: 15

Station Type Date Time Source
KSHD TAF UTC NOAA

Error!

Example: see airport list